OMRK/RKT METAR and TAF weather

Enter ICAO airport designator
Station Type Date Time Source
OMRK METAR 2019/10/15 22:00 UTC NOAA

OMRK 152200Z 29002KT 7000 NSC 23/21 Q1013 A2994


Station Type Date Time Source
OMRK Decoded METAR 2019/10/15 22:00 UTC NOAA

Ras Al Khaimah International Airport, United Arab Emirates (OMRK) 25-37N 055-56E 31M
Oct 15, 2019 - 06:00 PM EDT / 2019.10.15 2200 UTC
Wind: from the WNW (290 degrees) at 2 MPH (2 KT):0
Visibility: 4 mile(s):0
Temperature: 73 F (23 C)
Dew Point: 69 F (21 C)
Relative Humidity: 88%
Pressure (altimeter): 29.94 in. Hg (1013 hPa)
ob: OMRK 152200Z 29002KT 7000 NSC 23/21 Q1013 A2994
cycle: 22

Station Type Date Time Source
OMRK TAF 2019/10/15 18:02 UTC NOAA

TAF OMRK 151655Z 1518/1700 VRB02KT 8000 NSC PROB30 1521/1604 4000 HZ
BECMG 1607/1609 33012KT
BECMG 1615/1617 VRB02KT

Example: see airport list